createdAt,value
2023-05-07T00:01:03.813Z,0.10
2023-05-07T00:03:31.350Z,0.20
2023-05-07T00:05:58.861Z,0.20
2023-05-07T00:08:26.227Z,0.20
2023-05-07T00:10:53.943Z,0.20
2023-05-07T00:13:21.396Z,0.17
2023-05-07T00:15:48.813Z,0.10
2023-05-07T00:18:17.287Z,0.10
2023-05-07T00:20:44.664Z,0.10
2023-05-07T00:23:12.088Z,0.10
2023-05-07T00:25:39.398Z,0.20
2023-05-07T00:28:06.933Z,0.10
2023-05-07T00:30:34.328Z,0.10
2023-05-07T00:33:01.965Z,0.20
2023-05-07T00:35:30.664Z,0.20
2023-05-07T00:37:58.083Z,0.10
2023-05-07T00:40:25.760Z,0.10
2023-05-07T00:42:59.142Z,0.10
2023-05-07T00:45:30.084Z,0.10
2023-05-07T00:47:57.603Z,0.10
2023-05-07T00:50:25.009Z,0.10
2023-05-07T00:52:52.472Z,0.10
2023-05-07T00:55:19.856Z,0.10
2023-05-07T00:57:47.146Z,0.10
2023-05-07T01:00:14.892Z,0.10
2023-05-07T01:02:42.970Z,0.20
2023-05-07T01:05:11.448Z,0.10
2023-05-07T01:07:39.342Z,0.10
2023-05-07T01:10:06.970Z,0.10
2023-05-07T01:12:34.411Z,0.10
2023-05-07T01:15:01.919Z,0.20
2023-05-07T01:17:29.353Z,0.10
2023-05-07T01:19:56.752Z,0.20
2023-05-07T01:22:29.011Z,0.10
2023-05-07T01:24:57.242Z,0.10
2023-05-07T01:27:24.744Z,0.20
2023-05-07T01:29:52.212Z,0.20
2023-05-07T01:32:20.369Z,0.10
2023-05-07T01:34:47.762Z,0.10
2023-05-07T01:37:15.111Z,0.10
2023-05-07T01:39:42.602Z,0.10
2023-05-07T01:42:09.960Z,0.10
2023-05-07T01:44:37.456Z,0.20
2023-05-07T01:47:04.908Z,0.10
2023-05-07T01:49:32.376Z,0.10
2023-05-07T01:51:59.920Z,0.10
2023-05-07T01:54:31.675Z,0.10
2023-05-07T01:56:59.043Z,0.20
2023-05-07T01:59:26.486Z,0.10
2023-05-07T02:01:54.044Z,0.10
2023-05-07T02:04:21.614Z,0.10
2023-05-07T02:06:49.050Z,0.10
2023-05-07T02:09:18.755Z,0.10
2023-05-07T02:11:46.596Z,0.10
2023-05-07T02:14:13.928Z,0.10
2023-05-07T02:16:41.311Z,0.10
2023-05-07T02:19:08.675Z,0.10
2023-05-07T02:21:36.071Z,0.10
2023-05-07T02:24:03.380Z,0.20
2023-05-07T02:26:30.711Z,0.10
2023-05-07T02:28:58.244Z,0.20
2023-05-07T02:31:25.642Z,0.10
2023-05-07T02:33:52.960Z,0.10
2023-05-07T02:36:20.338Z,0.10
2023-05-07T02:38:47.659Z,0.10
2023-05-07T02:41:15.018Z,0.10
2023-05-07T02:43:42.395Z,0.20
2023-05-07T02:46:10.288Z,0.10
2023-05-07T02:48:37.816Z,0.10
2023-05-07T02:51:05.390Z,0.13
2023-05-07T02:53:32.814Z,0.10
2023-05-07T02:56:00.521Z,0.10
2023-05-07T02:58:27.928Z,0.10
2023-05-07T03:00:58.512Z,0.10
2023-05-07T03:03:25.970Z,0.10
2023-05-07T03:05:53.377Z,0.10
2023-05-07T03:08:20.762Z,0.10
2023-05-07T03:10:48.200Z,0.10
2023-05-07T03:13:16.084Z,0.10
2023-05-07T03:15:43.602Z,0.10
2023-05-07T03:18:11.633Z,0.20
2023-05-07T03:20:39.262Z,0.10
2023-05-07T03:23:06.796Z,0.10
2023-05-07T03:25:34.659Z,0.10
2023-05-07T03:28:02.118Z,0.10
2023-05-07T03:30:29.580Z,0.10
2023-05-07T03:32:57.080Z,0.10
2023-05-07T03:35:24.490Z,0.20
2023-05-07T03:37:51.819Z,0.10
2023-05-07T03:40:19.251Z,0.10
2023-05-07T03:42:46.594Z,0.10
2023-05-07T03:45:13.925Z,0.10
2023-05-07T03:47:41.551Z,0.10
2023-05-07T03:50:09.295Z,0.10
2023-05-07T03:52:37.098Z,0.10
2023-05-07T03:55:04.618Z,0.10
2023-05-07T03:57:32.026Z,0.10
2023-05-07T03:59:59.379Z,0.10
2023-05-07T04:02:26.825Z,0.10
2023-05-07T04:04:54.348Z,0.10
2023-05-07T04:07:21.878Z,0.10
2023-05-07T04:09:49.253Z,0.10
2023-05-07T04:12:16.863Z,0.10
2023-05-07T04:14:44.240Z,0.10
2023-05-07T04:17:11.993Z,0.10
2023-05-07T04:19:39.430Z,0.10
2023-05-07T04:22:06.920Z,0.10
2023-05-07T04:24:34.342Z,0.10
2023-05-07T04:27:01.707Z,0.10
2023-05-07T04:29:29.691Z,0.10
2023-05-07T04:31:57.621Z,0.10
2023-05-07T04:34:25.110Z,0.10
2023-05-07T04:36:52.444Z,0.10
2023-05-07T04:39:19.845Z,0.10
2023-05-07T04:41:47.540Z,0.10
2023-05-07T04:44:14.927Z,0.10
2023-05-07T04:46:42.342Z,0.10
2023-05-07T04:49:09.746Z,0.10
2023-05-07T04:51:37.206Z,0.10
2023-05-07T04:54:04.704Z,0.10
2023-05-07T04:56:32.072Z,0.10
2023-05-07T04:58:59.409Z,0.10
2023-05-07T05:01:26.808Z,0.10
2023-05-07T05:03:54.258Z,0.10
2023-05-07T05:06:21.678Z,0.10
2023-05-07T05:08:49.038Z,0.10
2023-05-07T05:11:16.596Z,0.10
2023-05-07T05:13:43.896Z,0.10
2023-05-07T05:16:11.394Z,0.10
2023-05-07T05:18:39.246Z,0.10
2023-05-07T05:21:06.688Z,0.10
2023-05-07T05:23:34.092Z,0.10
2023-05-07T05:26:01.462Z,0.10
2023-05-07T05:28:29.202Z,0.10
2023-05-07T05:30:56.728Z,0.10
2023-05-07T05:33:24.179Z,0.10
2023-05-07T05:35:51.957Z,0.10
2023-05-07T05:38:19.450Z,0.10
2023-05-07T05:40:46.883Z,0.10
2023-05-07T05:43:14.242Z,0.10
2023-05-07T05:45:41.674Z,0.10
2023-05-07T05:48:09.819Z,0.10
2023-05-07T05:50:37.852Z,0.10
2023-05-07T05:53:05.377Z,0.10
2023-05-07T05:55:33.701Z,0.00
2023-05-07T05:58:01.580Z,0.00
2023-05-07T06:00:29.474Z,0.10
2023-05-07T06:02:57.036Z,0.10
2023-05-07T06:05:24.512Z,0.10
2023-05-07T06:07:52.122Z,0.10
2023-05-07T06:10:19.567Z,0.10
2023-05-07T06:12:46.971Z,0.10
2023-05-07T06:15:14.730Z,0.10
2023-05-07T06:17:42.225Z,0.10
2023-05-07T06:20:10.154Z,0.10
2023-05-07T06:22:37.627Z,0.10
2023-05-07T06:25:05.230Z,0.10
2023-05-07T06:27:32.628Z,0.10
2023-05-07T06:30:00.059Z,0.10
2023-05-07T06:32:27.522Z,0.10
2023-05-07T06:34:55.058Z,0.10
2023-05-07T06:37:22.423Z,0.10
2023-05-07T06:39:49.888Z,0.10
2023-05-07T06:42:17.296Z,0.10
2023-05-07T06:44:44.633Z,0.10
2023-05-07T06:47:13.792Z,0.10
2023-05-07T06:49:42.589Z,0.10
2023-05-07T06:52:09.990Z,0.10
2023-05-07T06:54:37.480Z,0.10
2023-05-07T06:57:04.812Z,0.10
2023-05-07T06:59:32.353Z,0.10
2023-05-07T07:02:00.164Z,0.10
2023-05-07T07:04:27.750Z,0.10
2023-05-07T07:06:55.606Z,0.10
2023-05-07T07:09:24.044Z,0.10
2023-05-07T07:11:51.684Z,0.10
2023-05-07T07:14:18.988Z,0.10
2023-05-07T07:16:47.948Z,0.10
2023-05-07T07:19:16.457Z,0.10
2023-05-07T07:21:44.217Z,0.10
2023-05-07T07:24:11.525Z,0.20
2023-05-07T07:26:39.021Z,0.10
2023-05-07T07:29:06.394Z,0.10
2023-05-07T07:31:33.906Z,0.10
2023-05-07T07:34:01.253Z,0.10
2023-05-07T07:36:38.972Z,0.10
2023-05-07T07:39:12.837Z,0.10
2023-05-07T07:41:40.257Z,0.10
2023-05-07T07:44:08.734Z,0.10
2023-05-07T07:46:36.175Z,0.10
2023-05-07T07:49:03.763Z,0.20
2023-05-07T07:51:31.603Z,0.10
2023-05-07T07:53:59.047Z,0.10
2023-05-07T07:56:26.732Z,0.10
2023-05-07T07:58:54.148Z,0.10
2023-05-07T08:01:21.502Z,0.10
2023-05-07T08:03:48.943Z,0.10
2023-05-07T08:06:16.486Z,0.10
2023-05-07T08:08:44.045Z,0.10
2023-05-07T08:11:11.578Z,0.10
2023-05-07T08:13:38.928Z,0.10
2023-05-07T08:16:06.663Z,0.10
2023-05-07T08:18:34.084Z,0.10
2023-05-07T08:21:01.422Z,0.10
2023-05-07T08:23:28.785Z,0.10
2023-05-07T08:25:56.107Z,0.10
2023-05-07T08:28:25.778Z,0.10
2023-05-07T08:30:53.386Z,0.10
2023-05-07T08:33:21.124Z,0.10
2023-05-07T08:35:48.539Z,0.10
2023-05-07T08:38:15.856Z,0.10
2023-05-07T08:40:43.394Z,0.10
2023-05-07T08:43:11.018Z,0.10
2023-05-07T08:45:38.431Z,0.10
2023-05-07T08:48:07.151Z,0.10
2023-05-07T08:50:34.500Z,0.10
2023-05-07T08:53:01.929Z,0.10
2023-05-07T08:55:29.209Z,0.20
2023-05-07T08:57:56.691Z,0.20
2023-05-07T09:00:24.260Z,0.15
2023-05-07T09:02:51.674Z,0.10
2023-05-07T09:05:19.755Z,0.10
2023-05-07T09:07:47.661Z,0.10
2023-05-07T09:10:15.207Z,0.20
2023-05-07T09:12:42.632Z,0.10
2023-05-07T09:15:10.456Z,0.20
2023-05-07T09:17:38.234Z,0.20
2023-05-07T09:20:07.920Z,0.20
2023-05-07T09:22:40.366Z,0.20
2023-05-07T09:25:08.387Z,0.20
2023-05-07T09:27:35.777Z,0.20
2023-05-07T09:30:09.531Z,0.20
2023-05-07T09:32:39.411Z,0.20
2023-05-07T09:35:07.093Z,0.20
2023-05-07T09:37:34.605Z,0.20
2023-05-07T09:40:01.983Z,0.20
2023-05-07T09:42:29.502Z,0.20
2023-05-07T09:44:56.980Z,0.20
2023-05-07T09:47:26.109Z,0.20
2023-05-07T09:49:54.936Z,0.20
2023-05-07T09:52:22.261Z,0.20
2023-05-07T09:54:50.970Z,0.20
2023-05-07T09:57:18.246Z,0.20
2023-05-07T09:59:45.611Z,0.20
2023-05-07T10:02:15.731Z,0.20
2023-05-07T10:04:43.195Z,0.20
2023-05-07T10:07:10.919Z,0.20
2023-05-07T10:09:40.057Z,0.20
2023-05-07T10:12:08.199Z,0.20
2023-05-07T10:14:35.886Z,0.20
2023-05-07T10:17:04.301Z,0.20
2023-05-07T10:19:31.940Z,0.20
2023-05-07T10:22:02.096Z,0.20
2023-05-07T10:24:31.497Z,0.20
2023-05-07T10:26:58.960Z,0.20
2023-05-07T10:29:29.600Z,0.20
2023-05-07T10:31:57.820Z,0.20
2023-05-07T10:34:26.503Z,0.20
2023-05-07T10:36:54.279Z,0.20
2023-05-07T10:39:22.233Z,0.20
2023-05-07T10:41:49.999Z,0.20
2023-05-07T10:44:28.080Z,0.20
2023-05-07T10:47:11.832Z,0.20
2023-05-07T10:49:48.562Z,0.20
2023-05-07T10:52:17.259Z,0.20
2023-05-07T10:54:45.640Z,0.20
2023-05-07T10:57:31.549Z,0.20
2023-05-07T10:59:59.454Z,0.20
2023-05-07T11:02:47.100Z,0.20
2023-05-07T11:05:23.814Z,0.20
2023-05-07T11:07:57.964Z,0.20
2023-05-07T11:10:25.826Z,0.20
2023-05-07T11:12:53.792Z,0.20
2023-05-07T11:15:40.303Z,0.20
2023-05-07T11:18:07.777Z,0.30
2023-05-07T11:20:55.867Z,0.20
2023-05-07T11:23:39.005Z,0.20
2023-05-07T11:26:07.114Z,0.20
2023-05-07T11:28:41.422Z,0.20
2023-05-07T11:31:09.226Z,0.20
2023-05-07T11:33:36.789Z,0.30
2023-05-07T11:36:04.642Z,0.20
2023-05-07T11:38:32.353Z,0.20
2023-05-07T11:41:02.025Z,0.20
2023-05-07T11:43:29.472Z,0.20
2023-05-07T11:45:56.993Z,0.20
2023-05-07T11:48:26.970Z,0.20
2023-05-07T11:51:00.868Z,0.20
2023-05-07T11:53:30.912Z,0.20
2023-05-07T11:55:58.598Z,0.20
2023-05-07T11:58:29.519Z,0.20
2023-05-07T12:00:58.694Z,0.20
2023-05-07T12:03:27.372Z,0.20
2023-05-07T12:06:01.279Z,0.20
2023-05-07T12:08:28.780Z,0.20
2023-05-07T12:10:56.747Z,0.20
2023-05-07T12:13:27.497Z,0.20
2023-05-07T12:15:58.227Z,0.20
2023-05-07T12:18:33.292Z,0.20
2023-05-07T12:21:01.373Z,0.20
2023-05-07T12:23:29.204Z,0.20
2023-05-07T12:25:56.917Z,0.20
2023-05-07T12:28:24.650Z,0.20
2023-05-07T12:30:52.763Z,0.20
2023-05-07T12:33:22.798Z,0.20
2023-05-07T12:35:51.242Z,0.20
2023-05-07T12:38:19.767Z,0.20
2023-05-07T12:40:48.631Z,0.20
2023-05-07T12:43:20.371Z,0.10
2023-05-07T12:45:51.669Z,0.10
2023-05-07T12:48:19.814Z,0.20
2023-05-07T12:50:47.537Z,0.20
2023-05-07T12:53:16.494Z,0.20
2023-05-07T12:55:44.778Z,0.20
2023-05-07T12:58:19.369Z,0.20
2023-05-07T13:00:47.169Z,0.20
2023-05-07T13:03:16.072Z,0.20
2023-05-07T13:05:43.904Z,0.10
2023-05-07T13:08:11.597Z,0.20
2023-05-07T13:10:39.247Z,0.10
2023-05-07T13:13:06.884Z,0.20
2023-05-07T13:15:34.690Z,0.20
2023-05-07T13:18:02.316Z,0.20
2023-05-07T13:20:29.962Z,0.30
2023-05-07T13:22:57.412Z,0.10
2023-05-07T13:25:24.934Z,0.20
2023-05-07T13:28:02.830Z,0.20
2023-05-07T13:30:37.517Z,0.20
2023-05-07T13:33:05.091Z,0.20
2023-05-07T13:35:32.607Z,0.30
2023-05-07T13:37:59.996Z,0.20
2023-05-07T13:40:27.523Z,0.10
2023-05-07T13:42:55.203Z,0.20
2023-05-07T13:45:23.011Z,0.25
2023-05-07T13:47:50.765Z,0.10
2023-05-07T13:50:21.080Z,0.20
2023-05-07T13:52:54.651Z,0.20
2023-05-07T13:55:22.585Z,0.20
2023-05-07T13:57:54.093Z,0.20
2023-05-07T14:00:22.818Z,0.20
2023-05-07T14:02:50.269Z,0.20
2023-05-07T14:05:17.675Z,0.20
2023-05-07T14:07:45.155Z,0.20
2023-05-07T14:10:12.846Z,0.20
2023-05-07T14:12:40.670Z,0.20
2023-05-07T14:15:08.426Z,0.17
2023-05-07T14:17:36.053Z,0.20
2023-05-07T14:20:03.569Z,0.10
2023-05-07T14:22:31.068Z,0.20
2023-05-07T14:25:06.294Z,0.20
2023-05-07T14:27:42.179Z,0.10
2023-05-07T14:30:10.041Z,0.20
2023-05-07T14:32:37.755Z,0.20
2023-05-07T14:35:05.446Z,0.20
2023-05-07T14:37:32.919Z,0.10
2023-05-07T14:40:00.436Z,0.20
2023-05-07T14:42:27.976Z,0.15
2023-05-07T14:44:55.421Z,0.10
2023-05-07T14:47:22.973Z,0.20
2023-05-07T14:49:50.665Z,0.20
2023-05-07T14:52:18.042Z,0.20
2023-05-07T14:54:45.937Z,0.10
2023-05-07T14:57:17.450Z,0.10
2023-05-07T14:59:44.859Z,0.10
2023-05-07T15:02:13.148Z,0.20
2023-05-07T15:04:46.991Z,0.10
2023-05-07T15:07:16.392Z,0.10
2023-05-07T15:09:44.424Z,0.10
2023-05-07T15:12:12.801Z,0.10
2023-05-07T15:14:40.903Z,0.20
2023-05-07T15:17:08.777Z,0.20
2023-05-07T15:19:36.327Z,0.10
2023-05-07T15:22:03.985Z,0.10
2023-05-07T15:24:31.979Z,0.10
2023-05-07T15:26:59.571Z,0.10
2023-05-07T15:29:29.729Z,0.10
2023-05-07T15:31:57.458Z,0.10
2023-05-07T15:34:25.449Z,0.20
2023-05-07T15:36:53.021Z,0.10
2023-05-07T15:39:21.478Z,0.10
2023-05-07T15:41:50.051Z,0.10
2023-05-07T15:44:17.493Z,0.10
2023-05-07T15:46:44.907Z,0.10
2023-05-07T15:49:12.339Z,0.10
2023-05-07T15:51:39.943Z,0.10
2023-05-07T15:54:07.552Z,0.10
2023-05-07T15:56:34.983Z,0.10
2023-05-07T15:59:02.706Z,0.10
2023-05-07T16:01:30.218Z,0.10
2023-05-07T16:03:58.104Z,0.10
2023-05-07T16:06:25.582Z,0.10
2023-05-07T16:08:53.037Z,0.10
2023-05-07T16:11:22.541Z,0.10
2023-05-07T16:13:49.978Z,0.10
2023-05-07T16:16:20.800Z,0.10
2023-05-07T16:18:48.717Z,0.10
2023-05-07T16:21:16.159Z,0.10
2023-05-07T16:23:43.623Z,0.10
2023-05-07T16:26:10.943Z,0.10
2023-05-07T16:28:38.488Z,0.10
2023-05-07T16:31:10.456Z,0.10
2023-05-07T16:33:37.989Z,0.10
2023-05-07T16:36:05.387Z,0.10
2023-05-07T16:38:35.399Z,0.10
2023-05-07T16:41:02.802Z,0.10
2023-05-07T16:43:30.294Z,0.10
2023-05-07T16:45:57.994Z,0.10
2023-05-07T16:48:25.402Z,0.10
2023-05-07T16:50:52.755Z,0.10
2023-05-07T16:53:20.695Z,0.10
2023-05-07T16:55:48.042Z,0.10
2023-05-07T16:58:15.741Z,0.10
2023-05-07T17:00:50.569Z,0.10
2023-05-07T17:03:18.845Z,0.10
2023-05-07T17:05:46.594Z,0.10
2023-05-07T17:08:14.568Z,0.10
2023-05-07T17:10:42.264Z,0.10
2023-05-07T17:13:09.695Z,0.10
2023-05-07T17:15:37.255Z,0.10
2023-05-07T17:18:04.665Z,0.10
2023-05-07T17:20:32.134Z,0.10
2023-05-07T17:22:59.562Z,0.10
2023-05-07T17:25:27.179Z,0.10
2023-05-07T17:27:54.771Z,0.10
2023-05-07T17:30:22.129Z,0.10
2023-05-07T17:32:49.693Z,0.10
2023-05-07T17:35:17.207Z,0.10
2023-05-07T17:37:52.401Z,0.10
2023-05-07T17:40:22.902Z,0.10
2023-05-07T17:42:52.420Z,0.10
2023-05-07T17:45:21.370Z,0.10
2023-05-07T17:47:48.909Z,0.10
2023-05-07T17:50:16.504Z,0.10
2023-05-07T17:52:43.984Z,0.10
2023-05-07T17:55:11.727Z,0.10
2023-05-07T17:57:39.369Z,0.10
2023-05-07T18:00:11.160Z,0.10
2023-05-07T18:02:39.090Z,0.10
2023-05-07T18:05:06.638Z,0.10
2023-05-07T18:07:34.255Z,0.10
2023-05-07T18:10:02.346Z,0.10
2023-05-07T18:12:30.052Z,0.10
2023-05-07T18:14:57.749Z,0.10
2023-05-07T18:17:26.754Z,0.10
2023-05-07T18:19:55.364Z,0.10
2023-05-07T18:22:23.080Z,0.10
2023-05-07T18:24:51.225Z,0.10
2023-05-07T18:27:18.967Z,0.10
2023-05-07T18:29:46.439Z,0.10
2023-05-07T18:32:14.282Z,0.10
2023-05-07T18:34:41.869Z,0.10
2023-05-07T18:37:09.368Z,0.10
2023-05-07T18:39:37.052Z,0.20
2023-05-07T18:42:08.776Z,0.10
2023-05-07T18:44:39.038Z,0.10
2023-05-07T18:47:06.554Z,0.10
2023-05-07T18:49:34.260Z,0.10
2023-05-07T18:52:01.788Z,0.10
2023-05-07T18:54:29.362Z,0.10
2023-05-07T18:56:56.824Z,0.10
2023-05-07T18:59:24.506Z,0.10
2023-05-07T19:01:53.345Z,0.10
2023-05-07T19:04:21.029Z,0.10
2023-05-07T19:06:48.656Z,0.10
2023-05-07T19:09:16.032Z,0.10
2023-05-07T19:11:43.593Z,0.10
2023-05-07T19:14:11.332Z,0.10
2023-05-07T19:16:38.856Z,0.10
2023-05-07T19:19:06.977Z,0.10
2023-05-07T19:21:34.560Z,0.10
2023-05-07T19:24:02.083Z,0.10
2023-05-07T19:26:29.463Z,0.10
2023-05-07T19:31:28.162Z,0.10
2023-05-07T19:33:55.734Z,0.10
2023-05-07T19:36:25.719Z,0.10
2023-05-07T19:38:56.090Z,0.10
2023-05-07T19:41:23.618Z,0.10
2023-05-07T19:43:51.722Z,0.10
2023-05-07T19:46:19.353Z,0.10
2023-05-07T19:48:49.656Z,0.20
2023-05-07T19:51:17.042Z,0.10
2023-05-07T19:53:45.135Z,0.10
2023-05-07T19:56:12.923Z,0.10
2023-05-07T19:58:40.714Z,0.10
2023-05-07T20:01:08.211Z,0.10
2023-05-07T20:03:38.774Z,0.20
2023-05-07T20:06:08.698Z,0.20
2023-05-07T20:08:36.118Z,0.10
2023-05-07T20:11:04.001Z,0.10
2023-05-07T20:13:31.418Z,0.10
2023-05-07T20:15:59.837Z,0.10
2023-05-07T20:18:27.607Z,0.10
2023-05-07T20:20:55.100Z,0.10
2023-05-07T20:23:22.539Z,0.10
2023-05-07T20:25:50.658Z,0.10
2023-05-07T20:28:18.029Z,0.10
2023-05-07T20:30:45.435Z,0.20
2023-05-07T20:33:13.435Z,0.10
2023-05-07T20:35:41.276Z,0.13
2023-05-07T20:38:08.674Z,0.10
2023-05-07T20:40:38.036Z,0.20
2023-05-07T20:43:08.590Z,0.10
2023-05-07T20:45:36.123Z,0.10
2023-05-07T20:48:03.770Z,0.10
2023-05-07T20:50:31.376Z,0.20
2023-05-07T20:52:58.832Z,0.10
2023-05-07T20:55:26.378Z,0.20
2023-05-07T20:57:53.778Z,0.10
2023-05-07T21:00:21.475Z,0.10
2023-05-07T21:02:48.932Z,0.10
2023-05-07T21:05:16.352Z,0.10
2023-05-07T21:07:43.829Z,0.10
2023-05-07T21:10:11.624Z,0.10
2023-05-07T21:12:40.162Z,0.10
2023-05-07T21:15:08.029Z,0.20
2023-05-07T21:17:35.696Z,0.10
2023-05-07T21:20:04.113Z,0.10
2023-05-07T21:22:31.610Z,0.10
2023-05-07T21:24:59.141Z,0.10
2023-05-07T21:27:27.102Z,0.10
2023-05-07T21:29:54.871Z,0.10
2023-05-07T21:32:22.440Z,0.10
2023-05-07T21:34:49.941Z,0.10
2023-05-07T21:37:17.395Z,0.10
2023-05-07T21:39:45.440Z,0.13
2023-05-07T21:42:12.946Z,0.10
2023-05-07T21:44:40.579Z,0.10
2023-05-07T21:47:08.110Z,0.10
2023-05-07T21:49:36.119Z,0.10
2023-05-07T21:52:03.628Z,0.10
2023-05-07T21:54:31.086Z,0.10
2023-05-07T21:56:58.452Z,0.10
2023-05-07T21:59:25.868Z,0.10
2023-05-07T22:01:53.641Z,0.10
2023-05-07T22:04:20.982Z,0.20
2023-05-07T22:06:48.365Z,0.10
2023-05-07T22:09:15.799Z,0.10
2023-05-07T22:11:43.147Z,0.10
2023-05-07T22:14:10.787Z,0.10
2023-05-07T22:16:38.744Z,0.10
2023-05-07T22:19:06.585Z,0.10
2023-05-07T22:21:33.876Z,0.10
2023-05-07T22:24:01.382Z,0.10
2023-05-07T22:26:28.864Z,0.10
2023-05-07T22:28:56.332Z,0.10
2023-05-07T22:31:23.761Z,0.10
2023-05-07T22:33:51.241Z,0.10
2023-05-07T22:36:18.762Z,0.10
2023-05-07T22:38:46.258Z,0.10
2023-05-07T22:41:13.791Z,0.10
2023-05-07T22:43:41.246Z,0.10
2023-05-07T22:46:09.022Z,0.10
2023-05-07T22:48:36.641Z,0.10
2023-05-07T22:51:04.420Z,0.10
2023-05-07T22:53:31.911Z,0.10
2023-05-07T22:55:59.667Z,0.10
2023-05-07T22:58:27.123Z,0.10
2023-05-07T23:00:54.689Z,0.10
2023-05-07T23:03:22.336Z,0.10
2023-05-07T23:05:49.850Z,0.10
2023-05-07T23:08:17.350Z,0.10
2023-05-07T23:10:44.877Z,0.10
2023-05-07T23:13:17.470Z,0.10
2023-05-07T23:15:45.123Z,0.10
2023-05-07T23:18:12.563Z,0.10
2023-05-07T23:20:41.455Z,0.10
2023-05-07T23:23:08.779Z,0.10
2023-05-07T23:25:36.391Z,0.10
2023-05-07T23:28:04.191Z,0.10
2023-05-07T23:30:31.599Z,0.10
2023-05-07T23:32:58.955Z,0.10
2023-05-07T23:35:26.334Z,0.10
2023-05-07T23:37:53.772Z,0.10
2023-05-07T23:40:21.075Z,0.10
2023-05-07T23:42:48.497Z,0.10
2023-05-07T23:45:16.096Z,0.10
2023-05-07T23:47:43.642Z,0.10
2023-05-07T23:50:11.373Z,0.17
2023-05-07T23:52:39.155Z,0.10
2023-05-07T23:55:06.889Z,0.10
2023-05-07T23:57:34.238Z,0.10
